Eckman, North Dakota
Current Conditions -  °F | °C
As of 8:58 AM on Monday 24 Nov 2014 (Local Time) from KMIB Reporting Station
Clear Clear  
Wind Chill: -11°   Ceiling: Unl
Heat Index:   Visibility: 10mi
Dew Point:   Wind: 10mph
Humidity: 82%   Direction: 300°WNW
Pressure: 29.9"   Gusts: NA
Location:  48.7978°N, 101.326°W
Report Text: KMIB 241458Z AUTO 30009KT 10SM CLR M15/M18 A2990 RMK AO2 SLP168 T11551179 52026
Loading
Personal Weather Stations






























Interactive Weather Map New forecast layout! Learn more

10-Day Weather Forecast

Advertisements
Track Severe Weather on mobile